Time;durP1;ratioP1;P1;durP2;ratioP2;P2;SDS_P1;SDS_P2;PMS_P1;PMS_P2;Temp;Humidity;BMP_temperature;BMP_pressure;BME280_temperature;BME280_humidity;BME280_pressure;Samples;Min_cycle;Max_cycle;Signal;HPM_P1;HPM_P2
2023/07/20 00:00:12;;;;;;;2.80;2.60;;;23.30;68.40;;;;;;10333533;28;20768;-85
2023/07/20 00:05:18;;;;;;;3.10;2.80;;;23.20;67.60;;;;;;10354141;28;20328;-85
2023/07/20 00:10:21;;;;;;;3.07;2.90;;;23.20;67.80;;;;;;10353014;28;20314;-84
2023/07/20 00:15:23;;;;;;;4.57;3.17;;;23.10;65.80;;;;;;10353656;28;20223;-86
2023/07/20 00:20:25;;;;;;;5.63;3.37;;;23.00;67.20;;;;;;10352845;28;20196;-86
2023/07/20 00:25:29;;;;;;;2.90;2.70;;;22.90;65.20;;;;;;10352285;28;20744;-85
2023/07/20 00:30:31;;;;;;;6.77;2.80;;;22.80;65.80;;;;;;10339205;28;20233;-85
2023/07/20 00:35:33;;;;;;;2.80;2.60;;;22.80;64.00;;;;;;10353015;28;20729;-85
2023/07/20 00:40:41;;;;;;;2.63;2.53;;;22.70;65.30;;;;;;10336909;28;20210;-85
2023/07/20 00:45:44;;;;;;;2.70;2.50;;;22.70;66.20;;;;;;10350923;28;21583;-85
2023/07/20 00:50:48;;;;;;;2.90;2.70;;;22.70;64.30;;;;;;10342873;28;20204;-87
2023/07/20 00:55:51;;;;;;;2.90;2.70;;;22.60;65.10;;;;;;10388511;28;20226;-86
2023/07/20 01:00:54;;;;;;;2.90;2.70;;;22.60;65.70;;;;;;10351337;28;20286;-86
2023/07/20 01:06:08;;;;;;;4.27;3.00;;;22.60;65.10;;;;;;10346899;28;20241;-85
2023/07/20 01:11:20;;;;;;;3.03;2.83;;;22.60;66.60;;;;;;10350512;28;20206;-85
2023/07/20 01:16:22;;;;;;;3.37;2.40;;;22.50;65.40;;;;;;10342612;28;20231;-85
2023/07/20 01:21:29;;;;;;;2.80;2.60;;;22.50;66.70;;;;;;10353653;28;20245;-85
2023/07/20 01:27:18;;;;;;;3.23;3.03;;;22.50;64.00;;;;;;10337483;28;20254;-85
2023/07/20 01:32:25;;;;;;;2.90;2.60;;;22.40;65.90;;;;;;10353478;28;20213;-85
2023/07/20 01:37:30;;;;;;;3.33;3.03;;;22.30;66.90;;;;;;10363169;28;20238;-85
2023/07/20 01:42:32;;;;;;;3.10;2.90;;;22.30;66.40;;;;;;10348921;28;20684;-85
2023/07/20 01:47:36;;;;;;;3.20;2.90;;;22.20;66.50;;;;;;10354769;28;20251;-85
2023/07/20 01:52:38;;;;;;;3.27;3.00;;;22.20;68.20;;;;;;10348417;28;20210;-85
2023/07/20 01:57:40;;;;;;;3.03;2.83;;;22.10;67.10;;;;;;10353046;28;20242;-85
2023/07/20 02:02:44;;;;;;;3.00;2.80;;;22.00;67.70;;;;;;10338483;28;20205;-85
2023/07/20 02:07:46;;;;;;;2.80;2.60;;;22.00;68.30;;;;;;10348160;28;20235;-85
2023/07/20 02:12:54;;;;;;;3.20;2.90;;;21.80;68.10;;;;;;10333932;28;20214;-85
2023/07/20 02:17:57;;;;;;;3.40;2.97;;;21.80;68.50;;;;;;10353502;28;20212;-88
2023/07/20 02:23:00;;;;;;;3.90;3.60;;;21.80;69.20;;;;;;10362602;28;20207;-86
2023/07/20 02:28:02;;;;;;;3.57;3.23;;;21.70;68.50;;;;;;10349446;28;20377;-85
2023/07/20 02:33:06;;;;;;;3.10;2.90;;;21.60;68.60;;;;;;10347103;28;20207;-85
2023/07/20 02:38:08;;;;;;;3.00;2.77;;;21.50;69.20;;;;;;10349485;28;20226;-85
2023/07/20 02:43:10;;;;;;;3.87;3.57;;;21.40;68.90;;;;;;10327163;28;20329;-85
2023/07/20 02:48:14;;;;;;;4.00;3.30;;;21.40;69.20;;;;;;10345793;28;20317;-85
2023/07/20 02:53:16;;;;;;;3.87;3.57;;;21.40;69.90;;;;;;10363424;28;20203;-85
2023/07/20 02:58:18;;;;;;;3.30;3.10;;;21.30;69.80;;;;;;10349380;28;20309;-85
2023/07/20 03:03:22;;;;;;;5.10;3.00;;;21.20;69.30;;;;;;10331013;28;20292;-85
2023/07/20 03:08:24;;;;;;;2.97;2.77;;;21.10;69.50;;;;;;10341645;28;20337;-85
2023/07/20 03:13:26;;;;;;;3.47;2.90;;;20.90;69.40;;;;;;10343961;28;20261;-86
2023/07/20 03:18:30;;;;;;;3.90;3.43;;;20.90;69.40;;;;;;10333749;28;20227;-85
2023/07/20 03:23:32;;;;;;;3.90;3.60;;;20.80;69.30;;;;;;10331532;28;20712;-85
2023/07/20 03:28:34;;;;;;;4.17;3.17;;;20.70;70.10;;;;;;10364428;28;20326;-85
2023/07/20 03:33:37;;;;;;;3.23;3.03;;;20.70;70.40;;;;;;10327548;28;20225;-85
2023/07/20 03:38:40;;;;;;;3.33;3.03;;;20.70;70.40;;;;;;10323472;28;20309;-85
2023/07/20 03:43:42;;;;;;;3.30;3.00;;;20.70;70.40;;;;;;10344831;28;20195;-85
2023/07/20 03:48:46;;;;;;;3.70;3.40;;;20.70;71.40;;;;;;10328512;28;20230;-85
2023/07/20 03:53:48;;;;;;;3.10;2.90;;;20.60;71.40;;;;;;10347680;28;20298;-86
2023/07/20 03:58:50;;;;;;;3.40;3.10;;;20.60;72.00;;;;;;10347753;28;20708;-86
2023/07/20 04:03:53;;;;;;;5.03;3.20;;;20.70;72.60;;;;;;10350259;28;20262;-85
2023/07/20 04:08:55;;;;;;;2.83;2.63;;;20.70;72.10;;;;;;10331897;28;20422;-85
2023/07/20 04:13:57;;;;;;;13.00;3.07;;;20.80;72.00;;;;;;10349003;28;20589;-85
2023/07/20 04:19:01;;;;;;;3.13;2.93;;;20.80;72.30;;;;;;10344788;28;20228;-85
2023/07/20 04:24:04;;;;;;;2.90;2.70;;;20.80;71.60;;;;;;10332430;28;20293;-86
2023/07/20 04:29:07;;;;;;;2.47;2.37;;;20.90;72.00;;;;;;10364689;28;20234;-85
2023/07/20 04:34:13;;;;;;;2.50;2.30;;;20.90;71.50;;;;;;10332405;28;20600;-85
2023/07/20 04:39:15;;;;;;;2.70;2.50;;;21.00;71.60;;;;;;10361410;28;20231;-85
2023/07/20 04:44:21;;;;;;;3.00;2.40;;;21.10;72.30;;;;;;10326955;28;20207;-86
2023/07/20 04:49:25;;;;;;;3.10;2.70;;;21.10;71.30;;;;;;10351974;28;20257;-85
2023/07/20 04:54:27;;;;;;;4.80;2.53;;;21.20;72.30;;;;;;10348790;28;20205;-85
2023/07/20 04:59:29;;;;;;;3.30;2.80;;;21.30;72.80;;;;;;10332042;28;20246;-85
2023/07/20 05:04:33;;;;;;;3.13;2.93;;;21.40;72.00;;;;;;10368173;28;20210;-86
2023/07/20 05:09:35;;;;;;;2.77;2.60;;;21.60;72.30;;;;;;10365074;28;21155;-87
2023/07/20 05:14:37;;;;;;;2.80;2.60;;;21.70;71.40;;;;;;10328903;28;20294;-86
2023/07/20 05:19:41;;;;;;;4.50;2.90;;;21.80;73.20;;;;;;10371043;28;20223;-86
2023/07/20 05:24:43;;;;;;;2.90;2.70;;;21.90;71.80;;;;;;10341957;28;20199;-85
2023/07/20 05:29:45;;;;;;;6.13;2.67;;;22.10;70.90;;;;;;10354714;28;20325;-86
2023/07/20 05:34:52;;;;;;;2.87;2.73;;;22.10;71.50;;;;;;10336866;28;20273;-85
2023/07/20 05:39:54;;;;;;;2.97;2.70;;;22.20;71.00;;;;;;10354380;28;20192;-86
2023/07/20 05:44:56;;;;;;;2.57;2.37;;;22.20;71.00;;;;;;10354194;28;20222;-86
2023/07/20 05:50:00;;;;;;;2.80;2.60;;;22.30;71.30;;;;;;10374531;28;20252;-86
2023/07/20 05:55:03;;;;;;;3.23;2.93;;;22.30;71.90;;;;;;10368991;28;20265;-86
2023/07/20 06:00:06;;;;;;;3.30;2.60;;;22.30;72.40;;;;;;10385745;28;20608;-86
2023/07/20 06:05:16;;;;;;;3.20;2.87;;;22.30;71.70;;;;;;10386304;28;20313;-86
2023/07/20 06:10:18;;;;;;;3.30;3.00;;;22.50;72.20;;;;;;10390451;28;20293;-86
2023/07/20 06:15:27;;;;;;;2.90;2.47;;;22.60;70.80;;;;;;10386023;28;20237;-86
2023/07/20 06:20:31;;;;;;;2.70;2.50;;;22.80;71.00;;;;;;10367442;28;20192;-85
2023/07/20 06:25:33;;;;;;;4.47;3.37;;;23.00;69.30;;;;;;10364029;28;20222;-86
2023/07/20 06:30:35;;;;;;;2.53;2.30;;;23.20;69.00;;;;;;10369099;28;20241;-86
2023/07/20 06:35:42;;;;;;;6.40;2.60;;;23.30;70.00;;;;;;10369394;28;20226;-86
2023/07/20 06:40:44;;;;;;;6.40;2.97;;;23.50;69.40;;;;;;10352313;28;20271;-86
2023/07/20 06:45:51;;;;;;;2.97;2.23;;;23.60;69.40;;;;;;10350645;28;20253;-86
2023/07/20 06:50:55;;;;;;;3.03;2.60;;;23.80;68.00;;;;;;10350674;28;20242;-86
2023/07/20 06:55:57;;;;;;;2.60;2.27;;;24.10;69.30;;;;;;10351405;28;20651;-86
2023/07/20 07:00:59;;;;;;;2.50;2.30;;;24.20;69.40;;;;;;10368713;28;20614;-86
2023/07/20 07:06:03;;;;;;;2.60;2.30;;;24.40;69.30;;;;;;10365806;28;20247;-86
2023/07/20 07:11:05;;;;;;;2.33;2.17;;;24.70;67.40;;;;;;10368317;28;20363;-86
2023/07/20 07:16:07;;;;;;;2.63;2.40;;;24.70;67.40;;;;;;10369229;28;20238;-86
2023/07/20 07:21:10;;;;;;;2.40;2.20;;;24.80;66.80;;;;;;10368110;28;20222;-86
2023/07/20 07:26:12;;;;;;;3.00;2.50;;;24.80;66.70;;;;;;10368259;28;20274;-87
2023/07/20 07:31:15;;;;;;;4.60;3.80;;;24.90;67.10;;;;;;10367841;28;20327;-85
2023/07/20 07:36:18;;;;;;;2.53;2.33;;;25.10;66.80;;;;;;10358414;28;20310;-86
2023/07/20 07:41:20;;;;;;;3.33;2.53;;;25.30;65.50;;;;;;10349116;28;20219;-86
2023/07/20 07:46:22;;;;;;;3.30;2.60;;;25.60;65.20;;;;;;10367852;28;20253;-86
2023/07/20 07:51:26;;;;;;;2.37;2.17;;;25.90;65.50;;;;;;10362071;28;20307;-86
2023/07/20 07:56:29;;;;;;;2.53;2.33;;;26.20;62.70;;;;;;10365869;28;20290;-87
2023/07/20 08:01:31;;;;;;;2.70;2.50;;;26.50;62.80;;;;;;10367822;28;20207;-87
2023/07/20 08:06:34;;;;;;;4.20;3.07;;;26.90;62.80;;;;;;10366619;28;20223;-86
2023/07/20 08:11:36;;;;;;;2.80;2.60;;;27.20;60.80;;;;;;10367717;28;20223;-86
2023/07/20 08:16:38;;;;;;;3.33;2.40;;;27.30;60.80;;;;;;10360907;28;20219;-88
2023/07/20 08:21:42;;;;;;;5.53;3.03;;;27.40;58.40;;;;;;10347729;28;20218;-86
2023/07/20 08:26:44;;;;;;;3.40;2.80;;;27.50;58.80;;;;;;10375545;28;20215;-86
2023/07/20 08:31:46;;;;;;;3.17;2.90;;;27.60;58.80;;;;;;10385232;28;20215;-88
2023/07/20 08:36:50;;;;;;;2.60;2.50;;;27.50;59.60;;;;;;10389989;28;20393;-86
2023/07/20 08:41:52;;;;;;;3.23;2.93;;;27.40;59.40;;;;;;10374587;28;20191;-87
2023/07/20 08:46:55;;;;;;;3.00;2.80;;;27.70;58.70;;;;;;10374913;28;20215;-86
2023/07/20 08:51:59;;;;;;;2.70;2.27;;;27.60;59.30;;;;;;10356822;28;20229;-86
2023/07/20 08:57:03;;;;;;;6.20;2.90;;;27.50;58.70;;;;;;10389037;28;20288;-87
2023/07/20 09:02:06;;;;;;;5.33;2.97;;;27.40;58.60;;;;;;10404937;28;20219;-87
2023/07/20 09:07:11;;;;;;;3.10;2.90;;;27.20;58.60;;;;;;10407837;22;20265;-81
2023/07/20 09:12:16;;;;;;;4.60;2.80;;;27.30;58.70;;;;;;10421017;28;20973;-80
2023/07/20 09:17:19;;;;;;;2.33;2.13;;;27.90;56.80;;;;;;10411726;28;20226;-81
2023/07/20 09:22:23;;;;;;;2.60;2.30;;;28.80;55.60;;;;;;10380275;28;20206;-82
2023/07/20 09:27:36;;;;;;;2.80;2.60;;;29.00;55.20;;;;;;10380004;28;20280;-82
2023/07/20 09:32:42;;;;;;;3.43;1.97;;;29.30;56.20;;;;;;10377236;28;20613;-83
2023/07/20 09:37:51;;;;;;;2.60;2.40;;;29.80;54.30;;;;;;10380617;28;20483;-82
2023/07/20 09:42:59;;;;;;;2.70;2.50;;;30.00;53.90;;;;;;10380894;28;20195;-82
2023/07/20 09:48:06;;;;;;;2.33;2.07;;;29.60;54.90;;;;;;10384795;28;20302;-82
2023/07/20 09:53:12;;;;;;;4.40;2.37;;;29.80;54.20;;;;;;10379057;28;20206;-82
2023/07/20 09:58:15;;;;;;;2.37;2.20;;;29.80;53.60;;;;;;10376778;28;20222;-81
2023/07/20 10:03:20;;;;;;;2.13;2.03;;;30.20;53.70;;;;;;10374108;28;20286;-82
2023/07/20 10:08:25;;;;;;;5.73;2.30;;;30.60;51.10;;;;;;10374313;28;20211;-82
2023/07/20 10:13:30;;;;;;;2.20;2.00;;;30.30;51.00;;;;;;10377084;28;20207;-81
2023/07/20 10:18:40;;;;;;;2.30;2.10;;;30.10;51.90;;;;;;10378745;28;20722;-82
2023/07/20 10:23:44;;;;;;;5.20;2.03;;;29.80;50.20;;;;;;10375372;28;20222;-80
2023/07/20 10:28:46;;;;;;;5.37;3.27;;;29.70;52.70;;;;;;10364659;28;20270;-82
2023/07/20 10:33:50;;;;;;;2.20;2.10;;;29.40;52.30;;;;;;10373317;28;20222;-82
2023/07/20 10:38:56;;;;;;;2.07;1.97;;;29.10;52.00;;;;;;10373476;28;20217;-81
2023/07/20 10:44:03;;;;;;;2.40;2.07;;;28.80;52.20;;;;;;10371084;28;20203;-81
2023/07/20 10:49:06;;;;;;;2.30;2.10;;;28.50;52.60;;;;;;10373326;28;20709;-80
2023/07/20 10:54:30;;;;;;;2.20;2.10;;;28.10;53.10;;;;;;10371172;28;20250;-80
2023/07/20 10:59:39;;;;;;;2.40;2.20;;;27.70;53.10;;;;;;10372578;28;20254;-81
2023/07/20 11:04:42;;;;;;;3.40;2.33;;;27.70;52.80;;;;;;10372227;28;20278;-79
2023/07/20 11:09:46;;;;;;;1.93;1.83;;;27.60;52.40;;;;;;10373418;28;20667;-78
2023/07/20 11:14:55;;;;;;;1.70;1.60;;;27.30;52.30;;;;;;10370764;28;20199;-79
2023/07/20 11:20:00;;;;;;;3.00;2.03;;;27.10;53.50;;;;;;10370889;28;20561;-80
2023/07/20 11:25:05;;;;;;;2.03;1.93;;;26.90;52.60;;;;;;10370955;28;20354;-80
2023/07/20 11:30:16;;;;;;;2.13;1.93;;;26.70;52.90;;;;;;10373399;28;20227;-80
2023/07/20 11:35:19;;;;;;;1.70;1.60;;;26.70;52.90;;;;;;10371575;28;20652;-78
2023/07/20 11:40:23;;;;;;;2.30;2.10;;;26.60;51.20;;;;;;10370384;28;20234;-78
2023/07/20 11:45:27;;;;;;;3.10;2.10;;;26.50;53.30;;;;;;10368003;28;20269;-79
2023/07/20 11:50:29;;;;;;;2.40;2.10;;;26.40;53.10;;;;;;10371371;28;20623;-81
2023/07/20 11:55:33;;;;;;;3.03;1.60;;;26.40;52.10;;;;;;10376725;28;20326;-80
2023/07/20 12:00:39;;;;;;;2.60;2.10;;;26.40;53.50;;;;;;10378447;28;20223;-81
2023/07/20 12:05:41;;;;;;;2.30;2.10;;;26.20;51.60;;;;;;10379969;28;20194;-81
2023/07/20 12:10:46;;;;;;;3.10;1.70;;;26.20;53.00;;;;;;10362868;28;20222;-80
2023/07/20 12:15:48;;;;;;;1.67;1.57;;;26.20;51.40;;;;;;10379300;28;20227;-76
2023/07/20 12:21:00;;;;;;;4.27;3.87;;;26.10;51.70;;;;;;10377005;28;20195;-81
2023/07/20 12:26:05;;;;;;;2.40;2.20;;;26.00;51.70;;;;;;10379340;28;20227;-80
2023/07/20 12:31:07;;;;;;;2.60;2.40;;;26.00;52.40;;;;;;10379871;28;20251;-80
2023/07/20 12:36:10;;;;;;;2.10;2.00;;;26.00;51.20;;;;;;10377942;28;20225;-81
2023/07/20 12:41:14;;;;;;;3.73;2.47;;;26.10;51.10;;;;;;10377091;28;20732;-79
2023/07/20 12:46:16;;;;;;;1.80;1.70;;;26.30;51.30;;;;;;10379912;28;20278;-79
2023/07/20 12:51:18;;;;;;;1.90;1.80;;;26.40;51.80;;;;;;10377761;28;20251;-79
2023/07/20 12:56:22;;;;;;;2.00;1.90;;;26.30;53.60;;;;;;10378023;28;20219;-80
2023/07/20 13:01:24;;;;;;;2.30;2.20;;;26.20;53.70;;;;;;10377881;28;20203;-80
2023/07/20 13:06:26;;;;;;;1.90;1.80;;;26.20;50.70;;;;;;10377365;28;20230;-80
2023/07/20 13:11:29;;;;;;;2.77;1.87;;;26.10;51.80;;;;;;10377023;28;20589;-80
2023/07/20 13:16:32;;;;;;;1.80;1.67;;;26.10;52.10;;;;;;10376141;28;20219;-80
2023/07/20 13:21:34;;;;;;;2.13;1.80;;;26.10;51.20;;;;;;10376948;28;20226;-80
2023/07/20 13:26:37;;;;;;;2.20;2.10;;;26.20;51.80;;;;;;10376996;28;20262;-79
2023/07/20 13:31:39;;;;;;;2.33;2.23;;;26.20;51.40;;;;;;10373697;28;20238;-81
2023/07/20 13:36:41;;;;;;;2.57;2.37;;;26.30;51.60;;;;;;10375739;28;20648;-80
2023/07/20 13:41:46;;;;;;;1.70;1.60;;;26.20;54.70;;;;;;10378152;28;20527;-80
2023/07/20 13:46:48;;;;;;;2.17;2.07;;;26.20;52.70;;;;;;10376529;28;20222;-80
2023/07/20 13:51:50;;;;;;;3.30;2.20;;;26.20;51.40;;;;;;10378571;28;20269;-80
2023/07/20 13:56:54;;;;;;;5.13;4.63;;;26.20;51.50;;;;;;10379680;28;20223;-80
2023/07/20 14:01:56;;;;;;;5.10;2.33;;;26.20;50.60;;;;;;10363847;28;20204;-78
2023/07/20 14:06:58;;;;;;;2.60;2.40;;;26.20;51.70;;;;;;10365288;28;20235;-78
2023/07/20 14:12:01;;;;;;;5.20;2.40;;;26.20;49.50;;;;;;10372917;28;20658;-79
2023/07/20 14:17:04;;;;;;;2.53;1.87;;;26.30;50.40;;;;;;10372699;28;20756;-79
2023/07/20 14:22:06;;;;;;;2.30;2.10;;;26.30;50.10;;;;;;10347960;28;20203;-77
2023/07/20 14:27:10;;;;;;;2.40;2.20;;;26.20;49.80;;;;;;10376036;28;20219;-79
2023/07/20 14:32:13;;;;;;;2.23;2.13;;;26.20;50.60;;;;;;10375522;28;20226;-78
2023/07/20 14:37:15;;;;;;;2.00;1.90;;;26.20;50.50;;;;;;10375991;28;20239;-78
2023/07/20 14:42:18;;;;;;;2.47;1.83;;;26.20;50.20;;;;;;10375967;28;20666;-78
2023/07/20 14:47:20;;;;;;;2.00;1.90;;;26.20;49.20;;;;;;10376547;28;20286;-78
2023/07/20 14:52:23;;;;;;;2.13;2.03;;;26.10;50.20;;;;;;10375045;28;20288;-78
2023/07/20 14:57:26;;;;;;;2.27;2.10;;;26.10;50.40;;;;;;10376591;28;20682;-78
2023/07/20 15:02:28;;;;;;;1.80;1.70;;;26.00;49.50;;;;;;10372130;28;20202;-78
2023/07/20 15:07:30;;;;;;;1.50;1.43;;;26.00;50.10;;;;;;10369635;28;20227;-81
2023/07/20 15:12:34;;;;;;;1.73;1.63;;;26.00;48.30;;;;;;10375047;28;20246;-80
2023/07/20 15:17:37;;;;;;;1.50;1.40;;;26.10;49.00;;;;;;10375813;28;20219;-80
2023/07/20 15:22:39;;;;;;;2.30;1.70;;;26.10;49.10;;;;;;10374453;28;20204;-79
2023/07/20 15:27:43;;;;;;;3.80;2.00;;;26.10;48.60;;;;;;10372937;28;20245;-81
2023/07/20 15:32:45;;;;;;;2.20;1.90;;;26.10;49.30;;;;;;10375454;28;20226;-80
2023/07/20 15:37:47;;;;;;;2.13;2.03;;;26.10;48.80;;;;;;10366137;28;20284;-80
2023/07/20 15:42:51;;;;;;;1.80;1.70;;;26.10;48.50;;;;;;10373421;28;20191;-81
2023/07/20 15:47:53;;;;;;;1.73;1.60;;;26.10;48.90;;;;;;10375044;28;20598;-80
2023/07/20 15:52:55;;;;;;;2.00;1.87;;;26.10;48.70;;;;;;10368290;28;20223;-80
2023/07/20 15:57:58;;;;;;;2.10;2.00;;;26.10;49.00;;;;;;10375612;28;20269;-79
2023/07/20 16:03:00;;;;;;;2.13;1.87;;;26.10;49.20;;;;;;10373936;28;20634;-80
2023/07/20 16:08:04;;;;;;;2.13;1.93;;;26.00;49.30;;;;;;10375994;28;20293;-81
2023/07/20 16:13:07;;;;;;;1.70;1.60;;;26.00;49.60;;;;;;10374981;28;20619;-79
2023/07/20 16:18:09;;;;;;;2.63;2.53;;;26.00;50.60;;;;;;10360162;28;20250;-80
2023/07/20 16:23:11;;;;;;;3.93;2.10;;;26.00;50.20;;;;;;10371424;28;20257;-79
2023/07/20 16:28:15;;;;;;;1.97;1.87;;;26.00;49.50;;;;;;10369091;28;20278;-79
2023/07/20 16:33:17;;;;;;;1.90;1.80;;;26.00;50.70;;;;;;10358053;28;20223;-80
2023/07/20 16:38:19;;;;;;;1.80;1.70;;;26.00;50.30;;;;;;10362286;28;20222;-80
2023/07/20 16:43:23;;;;;;;2.40;2.20;;;25.90;49.00;;;;;;10382526;28;20201;-80
2023/07/20 16:48:25;;;;;;;2.80;2.60;;;25.90;49.20;;;;;;10380295;28;20261;-79
2023/07/20 16:53:27;;;;;;;1.83;1.73;;;25.90;49.50;;;;;;10378139;28;20666;-79
2023/07/20 16:58:30;;;;;;;2.60;1.90;;;25.80;49.10;;;;;;10377401;28;20277;-79
2023/07/20 17:03:33;;;;;;;2.30;2.20;;;25.80;48.20;;;;;;10376431;28;20207;-80
2023/07/20 17:08:35;;;;;;;2.40;2.23;;;25.80;49.10;;;;;;10377351;28;20242;-80
2023/07/20 17:13:38;;;;;;;2.13;1.93;;;25.70;49.80;;;;;;10375656;28;20220;-80
2023/07/20 17:18:40;;;;;;;1.87;1.77;;;25.70;50.50;;;;;;10379733;28;20246;-79
2023/07/20 17:23:43;;;;;;;2.43;2.23;;;25.70;50.90;;;;;;10384208;28;20298;-79
2023/07/20 17:28:46;;;;;;;2.33;2.10;;;25.60;48.80;;;;;;10371450;28;20223;-79
2023/07/20 17:33:48;;;;;;;2.30;2.10;;;25.60;48.60;;;;;;10370939;28;20586;-79
2023/07/20 17:38:50;;;;;;;1.70;1.60;;;25.60;48.50;;;;;;10370461;28;20224;-79
2023/07/20 17:43:56;;;;;;;2.47;2.10;;;25.50;49.40;;;;;;10372822;28;20237;-79
2023/07/20 17:48:59;;;;;;;2.77;2.57;;;25.50;51.30;;;;;;10377706;28;20660;-80
2023/07/20 17:54:01;;;;;;;2.10;2.00;;;25.40;50.20;;;;;;10374013;28;20227;-79
2023/07/20 17:59:04;;;;;;;1.93;1.83;;;25.30;51.40;;;;;;10373967;28;20227;-79
2023/07/20 18:04:07;;;;;;;3.33;2.70;;;25.30;50.00;;;;;;10377978;28;20200;-80
2023/07/20 18:09:09;;;;;;;2.20;2.10;;;25.20;49.90;;;;;;10375636;28;20230;-79
2023/07/20 18:14:12;;;;;;;2.00;1.90;;;25.10;50.30;;;;;;10374401;28;20215;-79
2023/07/20 18:19:14;;;;;;;2.03;1.93;;;25.00;50.60;;;;;;10371658;28;20242;-79
2023/07/20 18:24:16;;;;;;;2.40;2.20;;;25.00;51.20;;;;;;10372113;28;20184;-80
2023/07/20 18:29:20;;;;;;;2.13;2.03;;;24.90;51.50;;;;;;10373469;28;20218;-81
2023/07/20 18:34:22;;;;;;;2.20;2.10;;;24.90;50.40;;;;;;10355727;28;20215;-78
2023/07/20 18:39:24;;;;;;;2.47;2.27;;;24.80;51.70;;;;;;10373235;28;20208;-79
2023/07/20 18:44:28;;;;;;;2.30;2.20;;;24.80;53.60;;;;;;10372310;28;20235;-79
2023/07/20 18:49:31;;;;;;;2.67;2.30;;;24.80;50.70;;;;;;10371495;28;20254;-81
2023/07/20 18:54:34;;;;;;;2.37;2.17;;;24.70;53.10;;;;;;10368444;28;20207;-79
2023/07/20 18:59:38;;;;;;;2.10;2.00;;;24.70;52.40;;;;;;10369390;28;20231;-80
2023/07/20 19:04:40;;;;;;;1.80;1.70;;;24.60;54.20;;;;;;10370702;28;20215;-79
2023/07/20 19:09:42;;;;;;;3.30;3.00;;;24.60;57.60;;;;;;10370691;28;20222;-79
2023/07/20 19:14:45;;;;;;;3.17;2.97;;;24.50;53.90;;;;;;10368683;28;20261;-80
2023/07/20 19:19:47;;;;;;;2.47;2.37;;;24.40;53.00;;;;;;10371746;28;20215;-78
2023/07/20 19:24:49;;;;;;;2.50;2.30;;;24.40;58.50;;;;;;10369735;28;20218;-79
2023/07/20 19:29:53;;;;;;;2.40;2.20;;;24.40;58.00;;;;;;10369142;28;20713;-79
2023/07/20 19:34:55;;;;;;;2.20;2.10;;;24.40;54.80;;;;;;10371761;28;20195;-78
2023/07/20 19:39:57;;;;;;;1.63;1.53;;;24.30;53.90;;;;;;10371039;28;20222;-79
2023/07/20 19:45:00;;;;;;;2.53;2.37;;;24.20;52.80;;;;;;10371091;28;20199;-79
2023/07/20 19:50:05;;;;;;;2.97;2.40;;;24.00;53.20;;;;;;10367055;28;20222;-79
2023/07/20 19:55:07;;;;;;;4.77;2.30;;;23.90;53.50;;;;;;10370100;28;20211;-80
2023/07/20 20:00:12;;;;;;;2.50;2.30;;;23.70;53.80;;;;;;10372327;28;20219;-78
2023/07/20 20:05:15;;;;;;;2.50;2.30;;;23.60;53.70;;;;;;10354272;28;20222;-79
2023/07/20 20:10:17;;;;;;;4.73;2.20;;;23.40;54.10;;;;;;10371348;28;20633;-79
2023/07/20 20:15:21;;;;;;;2.87;2.67;;;23.30;54.00;;;;;;10364303;28;20724;-77
2023/07/20 20:20:23;;;;;;;2.70;2.50;;;23.10;54.00;;;;;;10372540;28;20207;-79
2023/07/20 20:25:26;;;;;;;2.43;2.30;;;22.90;54.00;;;;;;10376096;28;20207;-79
2023/07/20 20:30:30;;;;;;;5.70;2.70;;;22.90;54.50;;;;;;10372583;28;20697;-78
2023/07/20 20:35:32;;;;;;;2.67;2.47;;;22.80;54.80;;;;;;10380283;28;20495;-82
2023/07/20 20:40:34;;;;;;;4.27;2.83;;;22.70;54.80;;;;;;10358211;28;20642;-80
2023/07/20 20:45:38;;;;;;;5.90;2.40;;;22.70;55.90;;;;;;10379017;28;20210;-81
2023/07/20 20:50:43;;;;;;;2.10;2.00;;;22.70;55.50;;;;;;10378099;28;20237;-79
2023/07/20 20:55:45;;;;;;;2.87;2.67;;;22.60;55.80;;;;;;10375620;28;20226;-78
2023/07/20 21:00:48;;;;;;;2.00;1.90;;;22.60;55.40;;;;;;10376435;28;20230;-81
2023/07/20 21:05:51;;;;;;;2.97;2.67;;;22.60;56.90;;;;;;10376624;28;20250;-80
2023/07/20 21:10:53;;;;;;;2.33;2.23;;;22.60;56.00;;;;;;10357762;28;20219;-79
2023/07/20 21:15:56;;;;;;;2.77;2.57;;;22.60;56.30;;;;;;10375522;28;20215;-80
2023/07/20 21:20:59;;;;;;;2.93;2.10;;;22.50;56.50;;;;;;10374789;28;20222;-80
2023/07/20 21:26:02;;;;;;;2.50;2.30;;;22.50;56.60;;;;;;10372765;28;20215;-80
2023/07/20 21:31:09;;;;;;;2.30;2.10;;;22.50;57.20;;;;;;10344783;28;20713;-82
2023/07/20 21:36:11;;;;;;;2.23;2.07;;;22.40;56.20;;;;;;10371714;28;20218;-78
2023/07/20 21:41:13;;;;;;;2.10;2.00;;;22.30;57.20;;;;;;10374184;28;20187;-79
2023/07/20 21:46:17;;;;;;;3.17;2.87;;;22.30;57.20;;;;;;10370293;28;20234;-80
2023/07/20 21:51:20;;;;;;;2.30;2.20;;;22.20;57.80;;;;;;10373276;28;20274;-79
2023/07/20 21:56:23;;;;;;;2.00;1.90;;;22.20;57.10;;;;;;10381185;28;20215;-80
2023/07/20 22:01:27;;;;;;;2.47;1.90;;;22.10;57.00;;;;;;10370044;28;20199;-81
2023/07/20 22:06:30;;;;;;;5.47;3.03;;;22.00;57.10;;;;;;10352262;28;20227;-80
2023/07/20 22:11:32;;;;;;;2.90;1.93;;;21.90;57.40;;;;;;10377473;28;20868;-79
2023/07/20 22:16:36;;;;;;;4.67;2.53;;;21.80;57.60;;;;;;10375996;28;20701;-79
2023/07/20 22:21:39;;;;;;;2.30;2.10;;;21.70;57.40;;;;;;10368045;28;20685;-79
2023/07/20 22:26:42;;;;;;;2.60;2.40;;;21.60;57.70;;;;;;10368967;28;20246;-79
2023/07/20 22:31:46;;;;;;;2.20;2.10;;;21.60;58.30;;;;;;10362318;28;20342;-80
2023/07/20 22:36:48;;;;;;;6.00;2.10;;;21.60;58.20;;;;;;10368405;28;20701;-79
2023/07/20 22:41:50;;;;;;;2.20;2.10;;;21.60;58.10;;;;;;10368070;28;20199;-79
2023/07/20 22:46:54;;;;;;;1.90;1.80;;;21.50;59.00;;;;;;10371945;28;20782;-79
2023/07/20 22:51:56;;;;;;;2.90;2.10;;;21.50;58.80;;;;;;10370589;28;20223;-80
2023/07/20 22:56:58;;;;;;;2.13;2.03;;;21.50;58.70;;;;;;10367596;28;20732;-79
2023/07/20 23:02:02;;;;;;;3.10;2.20;;;21.40;58.70;;;;;;10361317;28;20230;-80
2023/07/20 23:07:04;;;;;;;2.50;2.13;;;21.40;58.70;;;;;;10371329;28;20237;-80
2023/07/20 23:12:07;;;;;;;2.03;1.93;;;21.40;59.40;;;;;;10370059;28;20697;-80
2023/07/20 23:17:11;;;;;;;2.10;1.90;;;21.40;59.60;;;;;;10373374;28;20323;-80
2023/07/20 23:22:15;;;;;;;2.17;2.00;;;21.40;59.30;;;;;;10352123;28;20203;-78
2023/07/20 23:27:18;;;;;;;2.20;2.00;;;21.30;59.70;;;;;;10369342;28;20215;-80
2023/07/20 23:32:21;;;;;;;1.90;1.80;;;21.30;59.50;;;;;;10371380;28;20308;-78
2023/07/20 23:37:23;;;;;;;2.23;2.13;;;21.30;60.00;;;;;;10377176;28;20215;-81
2023/07/20 23:42:25;;;;;;;2.30;2.20;;;21.40;60.30;;;;;;10370028;28;20191;-79
2023/07/20 23:47:28;;;;;;;2.10;1.97;;;21.30;59.60;;;;;;10369677;28;20219;-78
2023/07/20 23:52:34;;;;;;;1.97;1.87;;;21.30;61.10;;;;;;10382698;28;20313;-79
2023/07/20 23:57:37;;;;;;;2.10;1.97;;;21.30;59.50;;;;;;10384417;28;20597;-79
